createdAt,value
2023-02-07T00:02:02.305Z,64.25
2023-02-07T00:04:32.717Z,64.15
2023-02-07T00:07:03.152Z,64.17
2023-02-07T00:09:33.561Z,64.06
2023-02-07T00:12:04.043Z,64.22
2023-02-07T00:14:34.528Z,64.55
2023-02-07T00:17:05.284Z,64.35
2023-02-07T00:19:35.825Z,64.54
2023-02-07T00:22:06.270Z,64.53
2023-02-07T00:24:36.743Z,64.78
2023-02-07T00:27:07.761Z,64.86
2023-02-07T00:29:38.511Z,64.63
2023-02-07T00:32:09.830Z,64.81
2023-02-07T00:34:40.231Z,64.76
2023-02-07T00:37:10.989Z,64.97
2023-02-07T00:39:41.529Z,64.93
2023-02-07T00:42:11.962Z,65.03
2023-02-07T00:44:42.438Z,64.93
2023-02-07T00:47:12.867Z,65.10
2023-02-07T00:49:43.310Z,64.97
2023-02-07T00:52:13.834Z,65.11
2023-02-07T00:54:44.241Z,65.21
2023-02-07T00:57:14.662Z,65.20
2023-02-07T00:59:45.057Z,65.02
2023-02-07T01:02:15.563Z,64.82
2023-02-07T01:04:47.133Z,64.95
2023-02-07T01:07:17.724Z,64.92
2023-02-07T01:09:48.173Z,65.00
2023-02-07T01:12:18.675Z,64.62
2023-02-07T01:14:49.105Z,64.84
2023-02-07T01:17:22.388Z,64.90
2023-02-07T01:19:56.964Z,64.90
2023-02-07T01:22:27.731Z,64.96
2023-02-07T01:24:58.144Z,64.78
2023-02-07T01:27:28.650Z,64.98
2023-02-07T01:29:59.064Z,65.00
2023-02-07T01:32:30.214Z,65.01
2023-02-07T01:35:00.605Z,65.10
2023-02-07T01:37:31.042Z,65.09
2023-02-07T01:40:01.758Z,65.14
2023-02-07T01:42:32.253Z,65.13
2023-02-07T01:45:07.093Z,65.37
2023-02-07T01:47:38.417Z,65.19
2023-02-07T01:50:10.081Z,65.27
2023-02-07T01:52:42.839Z,65.13
2023-02-07T01:55:17.982Z,65.41
2023-02-07T01:57:48.601Z,65.28
2023-02-07T02:00:20.785Z,65.56
2023-02-07T02:02:51.437Z,65.45
2023-02-07T02:05:24.896Z,65.49
2023-02-07T02:07:55.327Z,65.79
2023-02-07T02:10:31.503Z,65.75
2023-02-07T02:13:24.398Z,66.06
2023-02-07T02:16:03.254Z,65.74
2023-02-07T02:18:56.883Z,65.78
2023-02-07T02:21:57.721Z,65.94
2023-02-07T02:25:05.606Z,65.83
2023-02-07T02:27:53.471Z,65.91
2023-02-07T02:30:51.105Z,66.19
2023-02-07T02:33:30.636Z,66.10
2023-02-07T02:36:12.332Z,65.95
2023-02-07T02:38:51.428Z,65.91
2023-02-07T02:41:25.777Z,66.10
2023-02-07T02:44:00.336Z,65.92
2023-02-07T02:46:35.493Z,66.01
2023-02-07T02:49:09.620Z,66.11
2023-02-07T02:51:41.282Z,66.29
2023-02-07T02:54:32.937Z,66.20
2023-02-07T02:57:19.465Z,66.14
2023-02-07T03:00:10.966Z,66.13
2023-02-07T03:02:51.346Z,66.16
2023-02-07T03:05:37.949Z,66.18
2023-02-07T03:08:26.632Z,66.31
2023-02-07T03:11:02.857Z,66.12
2023-02-07T03:13:41.015Z,66.40
2023-02-07T03:16:16.933Z,66.25
2023-02-07T03:18:55.636Z,66.17
2023-02-07T03:21:30.162Z,66.46
2023-02-07T03:24:04.182Z,66.39
2023-02-07T03:26:39.313Z,66.37
2023-02-07T03:29:13.432Z,66.32
2023-02-07T03:31:47.311Z,66.41
2023-02-07T03:34:23.648Z,66.53
2023-02-07T03:36:59.944Z,66.34
2023-02-07T03:39:30.832Z,65.99
2023-02-07T03:42:05.933Z,66.17
2023-02-07T03:44:38.491Z,66.21
2023-02-07T03:47:08.953Z,66.29
2023-02-07T03:49:39.410Z,66.20
2023-02-07T03:52:09.864Z,66.11
2023-02-07T03:54:40.261Z,66.00
2023-02-07T03:57:10.941Z,65.99
2023-02-07T03:59:41.438Z,66.27
2023-02-07T04:02:12.048Z,66.20
2023-02-07T04:04:42.714Z,66.15
2023-02-07T04:07:14.028Z,66.28
2023-02-07T04:09:44.455Z,66.26
2023-02-07T04:12:14.967Z,66.63
2023-02-07T04:14:45.403Z,66.39
2023-02-07T04:17:15.834Z,66.43
2023-02-07T04:19:46.315Z,66.45
2023-02-07T04:22:18.079Z,66.78
2023-02-07T04:24:48.982Z,66.70
2023-02-07T04:27:19.495Z,66.45
2023-02-07T04:29:50.022Z,66.61
2023-02-07T04:32:20.427Z,66.85
2023-02-07T04:34:50.887Z,66.81
2023-02-07T04:37:21.316Z,66.79
2023-02-07T04:39:51.736Z,66.84
2023-02-07T04:42:22.175Z,66.66
2023-02-07T04:44:52.606Z,67.06
2023-02-07T04:47:23.067Z,67.16
2023-02-07T04:49:53.630Z,67.07
2023-02-07T04:52:24.160Z,67.07
2023-02-07T04:54:54.792Z,66.96
2023-02-07T04:57:25.231Z,66.81
2023-02-07T04:59:55.629Z,67.14
2023-02-07T05:02:26.098Z,66.84
2023-02-07T05:04:56.606Z,67.11
2023-02-07T05:07:27.091Z,67.23
2023-02-07T05:09:57.476Z,67.29
2023-02-07T05:12:28.224Z,67.30
2023-02-07T05:14:59.387Z,67.36
2023-02-07T05:17:30.697Z,66.71
2023-02-07T05:20:01.115Z,66.83
2023-02-07T05:22:31.870Z,67.05
2023-02-07T05:25:02.381Z,66.79
2023-02-07T05:27:32.816Z,66.86
2023-02-07T05:30:03.232Z,66.53
2023-02-07T05:32:51.479Z,66.66
2023-02-07T05:35:22.030Z,66.71
2023-02-07T05:37:52.496Z,66.40
2023-02-07T05:40:24.315Z,66.39
2023-02-07T05:42:56.662Z,66.52
2023-02-07T05:45:27.200Z,66.37
2023-02-07T05:47:57.736Z,66.39
2023-02-07T05:50:29.237Z,66.46
2023-02-07T05:53:08.736Z,66.59
2023-02-07T05:55:39.437Z,66.68
2023-02-07T05:58:10.570Z,66.50
2023-02-07T06:00:40.953Z,66.71
2023-02-07T06:03:11.490Z,66.54
2023-02-07T06:05:42.106Z,66.70
2023-02-07T06:08:12.629Z,66.35
2023-02-07T06:10:43.123Z,66.61
2023-02-07T06:13:13.532Z,66.51
2023-02-07T06:15:44.051Z,66.64
2023-02-07T06:18:14.500Z,66.52
2023-02-07T06:20:44.951Z,66.59
2023-02-07T06:23:15.376Z,66.69
2023-02-07T06:25:45.835Z,66.85
2023-02-07T06:28:16.649Z,66.93
2023-02-07T06:30:47.281Z,66.89
2023-02-07T06:33:17.992Z,67.01
2023-02-07T06:35:48.426Z,66.95
2023-02-07T06:38:20.035Z,66.72
2023-02-07T06:40:51.164Z,66.84
2023-02-07T06:43:21.760Z,66.80
2023-02-07T06:45:52.166Z,66.92
2023-02-07T06:48:22.922Z,66.75
2023-02-07T06:50:53.873Z,66.79
2023-02-07T06:53:24.355Z,66.99
2023-02-07T06:55:54.814Z,67.16
2023-02-07T06:58:25.375Z,66.94
2023-02-07T07:00:55.875Z,67.15
2023-02-07T07:03:28.864Z,67.35
2023-02-07T07:06:00.333Z,67.37
2023-02-07T07:08:30.873Z,67.32
2023-02-07T07:11:01.390Z,67.25
2023-02-07T07:13:31.841Z,67.44
2023-02-07T07:16:02.741Z,67.23
2023-02-07T07:18:33.171Z,67.56
2023-02-07T07:21:03.641Z,67.12
2023-02-07T07:23:34.180Z,67.43
2023-02-07T07:26:04.671Z,67.11
2023-02-07T07:28:35.917Z,67.00
2023-02-07T07:31:09.001Z,67.25
2023-02-07T07:33:39.944Z,67.35
2023-02-07T07:36:11.537Z,67.01
2023-02-07T07:38:44.652Z,67.27
2023-02-07T07:41:17.920Z,67.14
2023-02-07T07:43:48.404Z,67.05
2023-02-07T07:46:18.876Z,67.39
2023-02-07T07:48:49.329Z,67.15
2023-02-07T07:51:20.093Z,67.15
2023-02-07T07:53:50.542Z,67.07
2023-02-07T07:56:20.951Z,67.29
2023-02-07T07:58:53.182Z,67.03
2023-02-07T08:01:23.922Z,67.04
2023-02-07T08:03:54.476Z,67.01
2023-02-07T08:06:24.956Z,66.73
2023-02-07T08:08:56.670Z,67.06
2023-02-07T08:11:27.221Z,67.03
2023-02-07T08:13:57.636Z,66.93
2023-02-07T08:16:28.164Z,67.08
2023-02-07T08:18:58.694Z,67.12
2023-02-07T08:21:29.109Z,67.24
2023-02-07T08:23:59.666Z,67.25
2023-02-07T08:26:30.088Z,67.30
2023-02-07T08:29:00.577Z,67.29
2023-02-07T08:31:31.201Z,67.34
2023-02-07T08:34:01.828Z,67.31
2023-02-07T08:36:32.279Z,67.17
2023-02-07T08:39:02.725Z,67.32
2023-02-07T08:41:33.133Z,67.45
2023-02-07T08:44:03.915Z,67.15
2023-02-07T08:46:34.379Z,67.10
2023-02-07T08:49:04.879Z,67.21
2023-02-07T08:51:35.429Z,67.09
2023-02-07T08:54:06.217Z,66.86
2023-02-07T08:56:36.713Z,66.93
2023-02-07T08:59:07.161Z,66.97
2023-02-07T09:01:37.722Z,67.06
2023-02-07T09:04:09.878Z,66.80
2023-02-07T09:06:40.364Z,66.77
2023-02-07T09:09:11.606Z,66.33
2023-02-07T09:11:42.058Z,66.32
2023-02-07T09:14:12.644Z,66.33
2023-02-07T09:16:43.532Z,66.21
2023-02-07T09:19:14.056Z,66.01
2023-02-07T09:21:45.554Z,66.03
2023-02-07T09:24:16.026Z,65.97
2023-02-07T09:26:46.585Z,65.84
2023-02-07T09:29:17.732Z,65.73
2023-02-07T09:31:48.313Z,65.54
2023-02-07T09:34:19.720Z,65.45
2023-02-07T09:36:51.161Z,65.14
2023-02-07T09:39:22.516Z,65.22
2023-02-07T09:42:00.973Z,64.75
2023-02-07T09:44:42.455Z,64.22
2023-02-07T09:47:16.842Z,63.93
2023-02-07T09:49:53.723Z,63.57
2023-02-07T09:52:29.505Z,63.25
2023-02-07T09:55:01.929Z,63.01
2023-02-07T09:57:37.852Z,62.80
2023-02-07T10:00:20.514Z,62.52
2023-02-07T10:02:58.105Z,62.34
2023-02-07T10:05:35.779Z,62.13
2023-02-07T10:08:06.357Z,62.08
2023-02-07T10:10:43.402Z,62.20
2023-02-07T10:13:41.994Z,61.61
2023-02-07T10:16:28.309Z,61.21
2023-02-07T10:19:07.538Z,61.20
2023-02-07T10:21:45.645Z,60.98
2023-02-07T10:24:46.293Z,60.67
2023-02-07T10:27:24.076Z,60.32
2023-02-07T10:30:01.010Z,59.74
2023-02-07T10:32:36.872Z,59.58
2023-02-07T10:35:19.499Z,59.53
2023-02-07T10:37:54.924Z,59.28
2023-02-07T10:40:29.241Z,59.10
2023-02-07T10:43:05.845Z,58.62
2023-02-07T10:45:36.501Z,58.42
2023-02-07T10:48:14.419Z,58.50
2023-02-07T10:50:45.318Z,58.45
2023-02-07T10:53:54.711Z,58.09
2023-02-07T10:56:28.107Z,57.87
2023-02-07T10:59:00.874Z,57.60
2023-02-07T11:01:34.195Z,57.00
2023-02-07T11:04:22.904Z,56.99
2023-02-07T11:07:03.958Z,56.63
2023-02-07T11:09:37.935Z,56.40
2023-02-07T11:12:21.306Z,56.27
2023-02-07T11:15:05.974Z,55.95
2023-02-07T11:17:37.431Z,55.70
2023-02-07T11:20:17.387Z,55.55
2023-02-07T11:22:52.023Z,55.36
2023-02-07T11:25:31.570Z,55.44
2023-02-07T11:28:02.776Z,55.12
2023-02-07T11:30:37.948Z,55.09
2023-02-07T11:33:19.371Z,54.94
2023-02-07T11:38:49.775Z,54.00
2023-02-07T11:41:24.588Z,53.82
2023-02-07T11:43:57.894Z,53.70
2023-02-07T11:46:35.430Z,53.68
2023-02-07T11:49:09.163Z,53.31
2023-02-07T11:51:39.649Z,52.76
2023-02-07T11:54:12.331Z,52.58
2023-02-07T11:56:46.162Z,52.38
2023-02-07T11:59:19.716Z,51.96
2023-02-07T12:01:55.303Z,51.89
2023-02-07T12:04:30.197Z,51.22
2023-02-07T12:07:05.756Z,50.86
2023-02-07T12:09:44.386Z,51.24
2023-02-07T12:12:21.338Z,51.22
2023-02-07T12:14:56.336Z,51.01
2023-02-07T12:17:33.359Z,51.08
2023-02-07T12:20:09.925Z,51.09
2023-02-07T12:22:53.204Z,50.83
2023-02-07T12:25:34.345Z,50.56
2023-02-07T12:28:19.858Z,50.54
2023-02-07T12:30:58.562Z,50.58
2023-02-07T12:33:34.282Z,50.66
2023-02-07T12:36:12.108Z,50.61
2023-02-07T12:38:49.459Z,50.81
2023-02-07T12:41:24.926Z,50.97
2023-02-07T12:44:06.455Z,50.91
2023-02-07T12:46:47.457Z,51.20
2023-02-07T12:49:32.976Z,51.33
2023-02-07T12:52:18.241Z,51.29
2023-02-07T12:55:01.592Z,51.77
2023-02-07T12:57:39.795Z,51.64
2023-02-07T13:00:17.804Z,51.66
2023-02-07T13:03:12.806Z,51.56
2023-02-07T13:05:57.656Z,50.71
2023-02-07T13:08:42.016Z,50.63
2023-02-07T13:11:22.792Z,50.96
2023-02-07T13:14:06.916Z,51.03
2023-02-07T13:16:49.069Z,51.10
2023-02-07T13:19:29.796Z,51.19
2023-02-07T13:22:03.492Z,51.31
2023-02-07T13:24:36.576Z,51.52
2023-02-07T13:27:17.762Z,51.41
2023-02-07T13:29:50.853Z,51.46
2023-02-07T13:32:25.594Z,51.39
2023-02-07T13:35:02.366Z,51.27
2023-02-07T13:37:40.488Z,51.29
2023-02-07T13:40:26.486Z,51.46
2023-02-07T13:43:07.245Z,51.31
2023-02-07T13:45:48.811Z,51.44
2023-02-07T13:48:29.024Z,51.35
2023-02-07T13:51:12.935Z,51.37
2023-02-07T13:53:52.767Z,51.49
2023-02-07T13:56:51.815Z,51.59
2023-02-07T13:59:39.342Z,51.68
2023-02-07T14:02:18.625Z,51.82
2023-02-07T14:04:53.991Z,51.94
2023-02-07T14:07:29.932Z,52.01
2023-02-07T14:10:01.380Z,52.16
2023-02-07T14:12:34.333Z,51.96
2023-02-07T14:15:36.493Z,52.06
2023-02-07T14:18:31.375Z,51.95
2023-02-07T14:21:06.000Z,51.89
2023-02-07T14:24:00.068Z,52.19
2023-02-07T14:26:58.342Z,52.44
2023-02-07T14:29:57.715Z,52.29
2023-02-07T14:33:05.585Z,52.16
2023-02-07T14:35:38.676Z,52.38
2023-02-07T14:38:30.669Z,52.32
2023-02-07T14:41:10.923Z,52.28
2023-02-07T14:44:07.469Z,52.36
2023-02-07T14:46:40.964Z,52.53
2023-02-07T14:49:19.476Z,52.65
2023-02-07T14:51:52.188Z,52.60
2023-02-07T14:54:29.978Z,52.52
2023-02-07T14:57:09.589Z,52.56
2023-02-07T14:59:44.842Z,52.41
2023-02-07T15:02:36.395Z,52.39
2023-02-07T15:05:25.822Z,52.37
2023-02-07T15:08:10.209Z,52.56
2023-02-07T15:10:45.346Z,52.62
2023-02-07T15:13:29.803Z,52.68
2023-02-07T15:16:02.325Z,52.65
2023-02-07T15:18:37.214Z,52.79
2023-02-07T15:21:13.263Z,52.78
2023-02-07T15:23:43.921Z,52.73
2023-02-07T15:26:21.220Z,52.67
2023-02-07T15:29:00.280Z,52.89
2023-02-07T15:31:31.620Z,53.11
2023-02-07T15:34:06.665Z,53.14
2023-02-07T15:36:40.386Z,53.34
2023-02-07T15:39:17.907Z,53.58
2023-02-07T15:41:51.113Z,53.79
2023-02-07T15:44:24.565Z,53.95
2023-02-07T15:46:57.288Z,54.20
2023-02-07T15:49:33.423Z,54.17
2023-02-07T15:52:17.992Z,54.31
2023-02-07T15:54:52.522Z,54.61
2023-02-07T15:57:28.459Z,54.68
2023-02-07T16:00:04.600Z,54.48
2023-02-07T16:02:48.334Z,54.77
2023-02-07T16:05:25.314Z,54.78
2023-02-07T16:07:57.025Z,54.58
2023-02-07T16:10:41.124Z,54.73
2023-02-07T16:13:21.736Z,54.80
2023-02-07T16:16:01.018Z,54.94
2023-02-07T16:18:42.835Z,55.06
2023-02-07T16:21:18.070Z,55.13
2023-02-07T16:23:51.205Z,55.21
2023-02-07T16:26:25.695Z,55.36
2023-02-07T16:28:56.550Z,55.49
2023-02-07T16:31:27.117Z,55.11
2023-02-07T16:33:57.732Z,54.89
2023-02-07T16:36:29.602Z,54.81
2023-02-07T16:39:00.190Z,55.09
2023-02-07T16:41:33.632Z,55.03
2023-02-07T16:44:07.128Z,55.34
2023-02-07T16:46:38.571Z,55.20
2023-02-07T16:49:15.655Z,55.34
2023-02-07T16:51:46.678Z,55.30
2023-02-07T16:54:17.154Z,55.23
2023-02-07T16:56:50.090Z,55.26
2023-02-07T16:59:22.597Z,55.09
2023-02-07T17:01:54.993Z,54.71
2023-02-07T17:04:24.030Z,54.71
2023-02-07T17:06:54.563Z,54.83
2023-02-07T17:09:27.455Z,54.81
2023-02-07T17:11:58.178Z,54.75
2023-02-07T17:14:28.780Z,54.62
2023-02-07T17:16:59.810Z,54.86
2023-02-07T17:19:31.006Z,54.96
2023-02-07T17:22:01.456Z,54.96
2023-02-07T17:24:32.465Z,55.29
2023-02-07T17:27:02.988Z,55.29
2023-02-07T17:29:33.525Z,55.64
2023-02-07T17:32:03.954Z,55.73
2023-02-07T17:34:34.652Z,55.99
2023-02-07T17:37:05.198Z,56.07
2023-02-07T17:39:35.613Z,56.01
2023-02-07T17:42:06.375Z,56.14
2023-02-07T17:44:36.794Z,56.35
2023-02-07T17:47:07.330Z,56.31
2023-02-07T17:49:37.767Z,56.21
2023-02-07T17:52:09.339Z,56.11
2023-02-07T17:54:42.913Z,56.06
2023-02-07T17:57:14.529Z,56.08
2023-02-07T17:59:44.920Z,55.85
2023-02-07T18:02:15.400Z,55.96
2023-02-07T18:04:45.839Z,55.89
2023-02-07T18:07:16.292Z,55.95
2023-02-07T18:09:46.746Z,55.77
2023-02-07T18:12:17.161Z,55.79
2023-02-07T18:14:47.537Z,55.87
2023-02-07T18:17:18.034Z,55.66
2023-02-07T18:19:48.448Z,55.75
2023-02-07T18:22:18.898Z,55.94
2023-02-07T18:24:49.335Z,55.94
2023-02-07T18:27:19.800Z,55.78
2023-02-07T18:29:50.297Z,55.69
2023-02-07T18:32:20.817Z,55.75
2023-02-07T18:34:51.246Z,55.58
2023-02-07T18:37:22.533Z,55.75
2023-02-07T18:39:53.180Z,55.85
2023-02-07T18:42:24.825Z,55.97
2023-02-07T18:44:55.888Z,56.09
2023-02-07T18:47:26.686Z,56.09
2023-02-07T18:49:57.076Z,55.97
2023-02-07T18:52:27.509Z,56.03
2023-02-07T18:54:57.981Z,55.85
2023-02-07T18:57:28.456Z,55.79
2023-02-07T18:59:59.055Z,55.80
2023-02-07T19:02:30.041Z,55.78
2023-02-07T19:05:00.567Z,55.66
2023-02-07T19:07:31.013Z,55.58
2023-02-07T19:10:01.789Z,55.46
2023-02-07T19:12:32.324Z,55.36
2023-02-07T19:15:02.765Z,55.35
2023-02-07T19:17:33.245Z,55.64
2023-02-07T19:20:03.749Z,55.75
2023-02-07T19:22:36.117Z,55.83
2023-02-07T19:25:07.924Z,55.62
2023-02-07T19:27:38.360Z,55.58
2023-02-07T19:30:10.707Z,55.65
2023-02-07T19:32:41.157Z,55.48
2023-02-07T19:35:11.782Z,55.64
2023-02-07T19:37:42.263Z,55.45
2023-02-07T19:40:13.329Z,55.48
2023-02-07T19:42:45.324Z,55.39
2023-02-07T19:45:15.870Z,55.33
2023-02-07T19:47:46.777Z,55.69
2023-02-07T19:50:17.267Z,55.53
2023-02-07T19:52:47.945Z,55.49
2023-02-07T19:55:18.654Z,55.54
2023-02-07T19:57:49.264Z,55.32
2023-02-07T20:00:20.288Z,55.36
2023-02-07T20:02:50.884Z,55.45
2023-02-07T20:05:21.607Z,55.30
2023-02-07T20:07:52.244Z,55.36
2023-02-07T20:10:22.998Z,55.14
2023-02-07T20:12:53.473Z,55.04
2023-02-07T20:15:23.878Z,55.14
2023-02-07T20:17:57.447Z,55.20
2023-02-07T20:20:27.843Z,55.27
2023-02-07T20:22:58.286Z,55.37
2023-02-07T20:25:33.505Z,55.36
2023-02-07T20:28:04.538Z,55.34
2023-02-07T20:30:35.524Z,55.48
2023-02-07T20:33:07.187Z,55.51
2023-02-07T20:35:40.854Z,55.64
2023-02-07T20:38:11.364Z,55.53
2023-02-07T20:40:41.962Z,55.48
2023-02-07T20:43:12.537Z,55.44
2023-02-07T20:45:42.946Z,55.54
2023-02-07T20:48:15.148Z,55.61
2023-02-07T20:50:45.570Z,55.32
2023-02-07T20:53:16.639Z,55.70
2023-02-07T20:55:47.051Z,55.43
2023-02-07T20:58:18.507Z,55.44
2023-02-07T21:00:48.951Z,55.23
2023-02-07T21:03:19.858Z,55.25
2023-02-07T21:05:50.510Z,55.32
2023-02-07T21:08:20.934Z,55.41
2023-02-07T21:10:51.595Z,55.27
2023-02-07T21:13:22.213Z,55.26
2023-02-07T21:16:02.765Z,55.31
2023-02-07T21:18:34.127Z,55.39
2023-02-07T21:21:08.864Z,55.38
2023-02-07T21:23:41.084Z,55.46
2023-02-07T21:26:13.921Z,55.49
2023-02-07T21:28:45.176Z,55.34
2023-02-07T21:31:18.248Z,55.33
2023-02-07T21:33:51.335Z,55.43
2023-02-07T21:36:23.297Z,55.47
2023-02-07T21:38:55.603Z,55.30
2023-02-07T21:41:28.645Z,55.52
2023-02-07T21:44:00.328Z,55.47
2023-02-07T21:46:32.767Z,55.40
2023-02-07T21:49:04.846Z,55.48
2023-02-07T21:51:36.760Z,55.34
2023-02-07T21:54:07.905Z,55.25
2023-02-07T21:56:40.432Z,55.28
2023-02-07T21:59:13.958Z,55.27
2023-02-07T22:01:46.106Z,55.29
2023-02-07T22:04:17.070Z,55.08
2023-02-07T22:06:49.332Z,55.21
2023-02-07T22:09:22.118Z,55.17
2023-02-07T22:11:54.504Z,55.18
2023-02-07T22:14:25.912Z,55.25
2023-02-07T22:16:57.526Z,55.38
2023-02-07T22:19:27.972Z,55.54
2023-02-07T22:21:59.158Z,55.76
2023-02-07T22:24:32.008Z,55.77
2023-02-07T22:27:02.471Z,55.68
2023-02-07T22:29:33.023Z,55.77
2023-02-07T22:32:03.541Z,56.00
2023-02-07T22:34:35.040Z,55.93
2023-02-07T22:37:05.429Z,55.87
2023-02-07T22:39:35.945Z,55.92
2023-02-07T22:42:06.884Z,56.29
2023-02-07T22:44:38.006Z,56.14
2023-02-07T22:47:08.484Z,56.15
2023-02-07T22:49:41.101Z,56.20
2023-02-07T22:52:10.003Z,56.23
2023-02-07T22:54:40.452Z,56.19
2023-02-07T22:57:13.430Z,56.19
2023-02-07T22:59:43.926Z,56.43
2023-02-07T23:02:14.342Z,56.46
2023-02-07T23:04:44.802Z,56.43
2023-02-07T23:07:15.221Z,56.52
2023-02-07T23:09:45.713Z,56.67
2023-02-07T23:12:16.799Z,56.64
2023-02-07T23:14:47.428Z,56.64
2023-02-07T23:17:17.874Z,56.75
2023-02-07T23:19:48.492Z,56.72
2023-02-07T23:22:19.374Z,56.72
2023-02-07T23:24:50.331Z,56.69
2023-02-07T23:27:21.332Z,56.96
2023-02-07T23:29:52.101Z,56.90
2023-02-07T23:32:22.528Z,56.83
2023-02-07T23:34:53.009Z,56.83
2023-02-07T23:37:23.839Z,56.93
2023-02-07T23:39:54.280Z,56.93
2023-02-07T23:42:24.915Z,56.90
2023-02-07T23:44:55.449Z,56.84
2023-02-07T23:47:25.960Z,56.91
2023-02-07T23:49:56.422Z,56.96
2023-02-07T23:52:26.869Z,57.06
2023-02-07T23:54:57.317Z,56.90
2023-02-07T23:57:27.700Z,57.00
2023-02-07T23:59:58.203Z,56.99
